Time;durP1;ratioP1;P1;durP2;ratioP2;P2;SDS_P1;SDS_P2;PMS_P1;PMS_P2;Temp;Humidity;BMP_temperature;BMP_pressure;BME280_temperature;BME280_humidity;BME280_pressure;Samples;Min_cycle;Max_cycle;Signal;HPM_P1;HPM_P2
2022/05/21 00:01:00;;;;;;;2.63;2.00;;;19.10;99.90;;;;;;5035145;28;20809;-44
2022/05/21 00:03:26;;;;;;;3.03;2.10;;;18.80;99.90;;;;;;5035274;28;20566;-43
2022/05/21 00:05:53;;;;;;;4.13;1.40;;;19.00;99.90;;;;;;5035318;28;20438;-44
2022/05/21 00:08:21;;;;;;;2.73;2.10;;;19.20;99.90;;;;;;5034988;28;21045;-44
2022/05/21 00:10:48;;;;;;;2.07;1.43;;;18.70;99.90;;;;;;5034829;28;20434;-43
2022/05/21 00:13:15;;;;;;;2.00;1.67;;;18.80;99.90;;;;;;5035122;28;20441;-43
2022/05/21 00:15:42;;;;;;;4.47;1.47;;;18.60;99.90;;;;;;5035647;28;20449;-43
2022/05/21 00:18:09;;;;;;;3.40;1.60;;;18.40;99.90;;;;;;5034901;28;20923;-43
2022/05/21 00:20:48;;;;;;;2.70;1.70;;;18.60;99.90;;;;;;5034244;28;20442;-43
2022/05/21 00:23:16;;;;;;;1.80;1.50;;;18.70;99.90;;;;;;5033083;28;20485;-44
2022/05/21 00:25:46;;;;;;;5.10;1.70;;;18.80;99.90;;;;;;5034622;28;20430;-43
2022/05/21 00:28:12;;;;;;;4.33;1.70;;;18.60;99.90;;;;;;5034473;28;20438;-43
2022/05/21 00:30:39;;;;;;;12.13;1.73;;;18.50;99.90;;;;;;5034579;28;20434;-43
2022/05/21 00:33:07;;;;;;;3.90;1.80;;;18.20;99.90;;;;;;5034555;28;20437;-44
2022/05/21 00:35:34;;;;;;;3.73;1.80;;;18.50;99.90;;;;;;5033833;28;20462;-43
2022/05/21 00:38:01;;;;;;;4.97;2.07;;;18.30;99.90;;;;;;5034574;28;20918;-43
2022/05/21 00:40:28;;;;;;;1.97;1.60;;;18.80;99.90;;;;;;5033955;28;20487;-43
2022/05/21 00:42:56;;;;;;;3.90;2.10;;;18.70;99.90;;;;;;5034646;28;20483;-43
2022/05/21 00:45:24;;;;;;;3.33;2.00;;;18.50;99.90;;;;;;5033696;28;20545;-43
2022/05/21 00:47:51;;;;;;;2.10;1.73;;;18.60;99.90;;;;;;5035055;28;20443;-45
2022/05/21 00:50:21;;;;;;;6.40;2.13;;;18.50;99.90;;;;;;5032768;28;20451;-44
2022/05/21 00:52:49;;;;;;;4.93;2.20;;;18.60;99.90;;;;;;5034247;28;20445;-44
2022/05/21 00:55:20;;;;;;;3.40;1.87;;;18.90;99.90;;;;;;5034124;28;20457;-43
2022/05/21 00:59:47;;;;;;;2.77;2.00;;;18.60;99.90;;;;;;5034530;28;20441;-45
2022/05/21 01:00:37;;;;;;;5.60;2.20;;;18.70;99.90;;;;;;5034195;28;20457;-45
2022/05/21 01:03:04;;;;;;;2.30;1.77;;;18.90;99.90;;;;;;5034131;28;20466;-44
2022/05/21 01:05:31;;;;;;;5.23;2.60;;;18.60;99.90;;;;;;5034476;28;20427;-44
2022/05/21 01:08:00;;;;;;;4.60;2.30;;;18.60;99.90;;;;;;5034518;28;20447;-44
2022/05/21 01:10:29;;;;;;;2.37;2.17;;;18.10;99.90;;;;;;5033736;28;20489;-43
2022/05/21 01:12:57;;;;;;;3.50;2.03;;;18.40;99.90;;;;;;5034089;28;20938;-44
2022/05/21 01:15:28;;;;;;;3.10;2.43;;;18.00;99.90;;;;;;5033659;28;20433;-42
2022/05/21 01:17:56;;;;;;;4.67;2.20;;;18.30;99.90;;;;;;5034016;28;20767;-44
2022/05/21 01:20:34;;;;;;;5.50;2.10;;;17.70;99.80;;;;;;5033681;28;20415;-43
2022/05/21 01:23:02;;;;;;;7.30;2.43;;;17.90;99.90;;;;;;5033686;28;20990;-43
2022/05/21 01:25:31;;;;;;;3.40;2.50;;;17.50;99.90;;;;;;5033832;28;20448;-44
2022/05/21 01:27:58;;;;;;;3.20;2.03;;;17.80;99.90;;;;;;5034843;28;20421;-44
2022/05/21 01:30:32;;;;;;;2.60;1.80;;;17.80;99.90;;;;;;5033300;28;20518;-43
2022/05/21 01:32:59;;;;;;;3.07;1.90;;;18.10;99.90;;;;;;5034152;28;20437;-43
2022/05/21 01:35:25;;;;;;;2.90;2.00;;;17.90;99.90;;;;;;5035397;28;20436;-44
2022/05/21 01:37:52;;;;;;;3.27;2.20;;;18.00;99.90;;;;;;5033524;28;20442;-43
2022/05/21 01:40:21;;;;;;;2.73;1.90;;;17.70;99.90;;;;;;5033623;28;20445;-43
2022/05/21 01:44:37;;;;;;;2.63;1.93;;;17.60;99.90;;;;;;5034436;28;20474;-43
2022/05/21 01:45:35;;;;;;;2.20;1.90;;;17.50;99.90;;;;;;5033738;28;20540;-43
2022/05/21 01:48:02;;;;;;;2.17;1.43;;;17.70;99.90;;;;;;5033787;28;20438;-43
2022/05/21 01:50:29;;;;;;;4.30;1.70;;;17.80;99.90;;;;;;5033568;28;20468;-43
2022/05/21 01:52:56;;;;;;;6.73;2.70;;;17.40;99.90;;;;;;5033432;28;20922;-44
2022/05/21 01:55:24;;;;;;;3.40;2.30;;;17.20;99.90;;;;;;5033515;28;20437;-43
2022/05/21 01:57:51;;;;;;;5.13;1.87;;;17.40;99.90;;;;;;5034280;28;20533;-44
2022/05/21 02:00:19;;;;;;;3.80;2.00;;;17.10;99.90;;;;;;5034820;28;20469;-42
2022/05/21 02:02:45;;;;;;;2.90;1.53;;;17.30;99.90;;;;;;5035855;28;21063;-43
2022/05/21 02:05:12;;;;;;;3.00;2.07;;;17.40;99.90;;;;;;5035994;28;20438;-44
2022/05/21 02:07:39;;;;;;;1.90;1.60;;;17.20;99.90;;;;;;5032973;28;20443;-44
2022/05/21 02:10:06;;;;;;;2.37;1.77;;;16.70;99.90;;;;;;5032301;28;20841;-43
2022/05/21 02:12:34;;;;;;;5.27;2.37;;;17.00;99.90;;;;;;5032532;28;20447;-44
2022/05/21 02:15:01;;;;;;;6.23;1.93;;;17.70;99.90;;;;;;5032209;28;20452;-44
2022/05/21 02:17:27;;;;;;;3.97;2.10;;;16.80;99.90;;;;;;5032278;28;20446;-44
2022/05/21 02:19:54;;;;;;;2.40;1.90;;;17.20;99.90;;;;;;5032209;28;20444;-43
2022/05/21 02:22:20;;;;;;;4.67;2.10;;;17.00;99.90;;;;;;5032700;28;20532;-44
2022/05/21 02:24:47;;;;;;;3.03;2.00;;;17.30;99.90;;;;;;5032248;28;20457;-44
2022/05/21 02:27:15;;;;;;;3.60;2.20;;;17.30;99.90;;;;;;5032881;28;20496;-44
2022/05/21 02:29:44;;;;;;;5.30;1.53;;;17.20;99.90;;;;;;5032121;28;20431;-43
2022/05/21 02:32:12;;;;;;;2.67;2.23;;;17.20;99.90;;;;;;5032459;28;20466;-41
2022/05/21 02:34:39;;;;;;;2.53;2.10;;;17.20;99.90;;;;;;5032435;28;20462;-43
2022/05/21 02:39:52;;;;;;;3.70;2.13;;;17.20;99.90;;;;;;5032530;28;20416;-44
2022/05/21 02:45:05;;;;;;;4.40;1.93;;;17.00;99.90;;;;;;5032902;28;20538;-43
2022/05/21 02:47:32;;;;;;;3.70;2.50;;;17.10;99.90;;;;;;5033170;28;20520;-44
2022/05/21 02:49:58;;;;;;;3.53;2.20;;;17.00;99.90;;;;;;5032839;28;20440;-44
2022/05/21 02:52:26;;;;;;;3.30;2.10;;;17.00;99.90;;;;;;5033042;28;20436;-44
2022/05/21 02:54:52;;;;;;;3.27;1.80;;;16.70;99.90;;;;;;5032366;28;21014;-43
2022/05/21 02:57:19;;;;;;;2.73;2.10;;;17.30;99.90;;;;;;5032165;28;20529;-42
2022/05/21 02:59:48;;;;;;;3.20;2.40;;;16.90;99.90;;;;;;5031553;28;20842;-44
2022/05/21 03:02:16;;;;;;;2.30;1.70;;;17.40;99.90;;;;;;5031946;28;21063;-44
2022/05/21 03:04:43;;;;;;;2.63;2.20;;;17.30;99.90;;;;;;5031910;28;20483;-43
2022/05/21 03:07:10;;;;;;;5.30;2.27;;;17.10;99.90;;;;;;5032193;28;20463;-45
2022/05/21 03:12:20;;;;;;;2.53;2.10;;;17.10;99.90;;;;;;5035975;28;20428;-43
2022/05/21 03:14:47;;;;;;;5.77;2.37;;;17.20;99.70;;;;;;5035917;28;20452;-43
2022/05/21 03:17:13;;;;;;;5.50;2.00;;;17.20;99.50;;;;;;5036133;28;20873;-43
2022/05/21 03:19:41;;;;;;;3.30;2.10;;;17.10;99.40;;;;;;5035636;28;20432;-43
2022/05/21 03:22:08;;;;;;;3.10;2.27;;;17.00;99.40;;;;;;5035595;28;20446;-43
2022/05/21 03:24:35;;;;;;;2.83;2.13;;;16.90;99.20;;;;;;5035659;28;20515;-43
2022/05/21 03:27:01;;;;;;;8.30;2.63;;;16.70;99.20;;;;;;5035864;28;20884;-44
2022/05/21 03:29:28;;;;;;;4.50;2.57;;;16.80;99.20;;;;;;5035298;28;20435;-46
2022/05/21 03:31:55;;;;;;;2.77;2.47;;;16.60;99.00;;;;;;5035551;28;20443;-44
2022/05/21 03:34:21;;;;;;;3.47;2.40;;;16.70;98.90;;;;;;5035597;28;20447;-43
2022/05/21 03:36:49;;;;;;;3.63;2.60;;;16.90;99.10;;;;;;5035761;28;20798;-43
2022/05/21 03:39:16;;;;;;;8.13;2.50;;;16.50;98.80;;;;;;5035193;28;20443;-43
2022/05/21 03:41:42;;;;;;;4.30;2.60;;;17.20;99.10;;;;;;5034959;28;20435;-44
2022/05/21 03:44:09;;;;;;;5.17;3.30;;;16.50;98.60;;;;;;5035556;28;20494;-44
2022/05/21 03:46:38;;;;;;;3.10;2.30;;;16.80;98.90;;;;;;5035479;28;20475;-44
2022/05/21 03:49:05;;;;;;;5.03;2.43;;;16.40;98.70;;;;;;5034974;28;20490;-45
2022/05/21 03:51:31;;;;;;;3.20;2.00;;;16.50;98.70;;;;;;5035171;28;20454;-44
2022/05/21 03:53:59;;;;;;;4.60;2.23;;;16.80;99.00;;;;;;5035601;28;20455;-44
2022/05/21 03:56:27;;;;;;;5.33;1.73;;;16.70;98.90;;;;;;5034929;28;20436;-44
2022/05/21 03:58:54;;;;;;;3.30;2.37;;;16.10;98.60;;;;;;5034971;28;20436;-44
2022/05/21 04:01:20;;;;;;;4.87;2.20;;;16.30;98.70;;;;;;5034933;28;20440;-44
2022/05/21 04:03:48;;;;;;;3.33;2.03;;;16.60;98.80;;;;;;5033766;28;20483;-45
2022/05/21 04:06:15;;;;;;;4.03;2.43;;;16.40;98.60;;;;;;5034804;28;20443;-44
2022/05/21 04:08:41;;;;;;;2.10;1.63;;;16.80;98.80;;;;;;5034466;28;20458;-44
2022/05/21 04:11:09;;;;;;;2.20;1.97;;;16.90;98.70;;;;;;5034514;28;20438;-44
2022/05/21 04:13:36;;;;;;;3.10;1.80;;;16.40;98.30;;;;;;5034382;28;20470;-44
2022/05/21 04:16:02;;;;;;;2.37;2.10;;;16.70;98.20;;;;;;5033437;28;20449;-45
2022/05/21 04:18:29;;;;;;;5.27;2.30;;;17.00;98.30;;;;;;5034116;28;20435;-44
2022/05/21 04:20:56;;;;;;;2.53;1.70;;;16.60;97.60;;;;;;5034755;28;20436;-44
2022/05/21 04:23:23;;;;;;;5.70;1.80;;;16.80;97.50;;;;;;5034563;28;20476;-44
2022/05/21 04:25:49;;;;;;;4.33;1.63;;;17.10;97.20;;;;;;5034668;28;20796;-44
2022/05/21 04:28:18;;;;;;;3.03;1.60;;;16.30;96.50;;;;;;5034431;28;20440;-44
2022/05/21 04:30:44;;;;;;;3.13;1.90;;;17.10;96.40;;;;;;5033936;28;20550;-44
2022/05/21 04:33:11;;;;;;;4.73;1.70;;;17.10;95.90;;;;;;5034469;28;20438;-44
2022/05/21 04:38:22;;;;;;;2.83;1.47;;;16.70;94.60;;;;;;5034362;28;20426;-43
2022/05/21 04:40:48;;;;;;;2.80;1.27;;;17.00;94.80;;;;;;5034069;28;20438;-44
2022/05/21 04:43:15;;;;;;;7.33;1.83;;;16.60;94.20;;;;;;5034145;28;20479;-44
2022/05/21 04:45:43;;;;;;;3.63;1.40;;;17.10;94.20;;;;;;5034412;28;20428;-45
2022/05/21 04:48:10;;;;;;;3.43;1.47;;;17.10;93.60;;;;;;5034473;28;20949;-43
2022/05/21 04:50:38;;;;;;;5.33;2.17;;;16.80;93.20;;;;;;5033760;28;20432;-43
2022/05/21 04:53:07;;;;;;;5.23;1.30;;;16.90;92.90;;;;;;5034200;28;20443;-44
2022/05/21 04:55:33;;;;;;;2.20;1.37;;;16.90;93.00;;;;;;5034495;28;20437;-43
2022/05/21 04:58:00;;;;;;;4.43;1.20;;;16.50;92.90;;;;;;5034534;28;20447;-44
2022/05/21 05:00:27;;;;;;;3.70;1.43;;;16.80;93.30;;;;;;5033524;28;20499;-44
2022/05/21 05:02:56;;;;;;;2.20;1.60;;;17.00;93.50;;;;;;5033676;28;20948;-44
2022/05/21 05:05:23;;;;;;;3.40;1.53;;;16.60;93.00;;;;;;5033592;28;20436;-43
2022/05/21 05:07:50;;;;;;;1.90;1.70;;;17.00;93.40;;;;;;5033817;28;20868;-44
2022/05/21 05:10:17;;;;;;;4.60;1.70;;;16.70;93.30;;;;;;5033968;28;20446;-43
2022/05/21 05:12:43;;;;;;;3.77;1.60;;;17.20;93.60;;;;;;5034611;28;20432;-44
2022/05/21 05:15:10;;;;;;;3.27;1.70;;;17.60;93.90;;;;;;5034069;28;20531;-43
2022/05/21 05:17:37;;;;;;;3.50;2.30;;;17.50;93.70;;;;;;5033856;28;20519;-43
2022/05/21 05:20:06;;;;;;;6.50;2.40;;;17.40;93.60;;;;;;5033816;28;20438;-44
2022/05/21 05:22:33;;;;;;;2.90;2.00;;;17.50;93.60;;;;;;5033985;28;20833;-44
2022/05/21 05:25:02;;;;;;;4.73;2.23;;;17.40;93.60;;;;;;5033819;28;20494;-45
2022/05/21 05:27:29;;;;;;;2.17;1.53;;;17.20;93.50;;;;;;5034003;28;20527;-44
2022/05/21 05:29:55;;;;;;;2.90;1.90;;;17.80;93.80;;;;;;5033278;28;20440;-45
2022/05/21 05:32:22;;;;;;;3.07;2.07;;;17.50;93.50;;;;;;5032933;28;20488;-45
2022/05/21 05:34:49;;;;;;;3.77;1.60;;;17.50;93.30;;;;;;5033239;28;20447;-45
2022/05/21 05:37:17;;;;;;;4.60;1.83;;;17.40;93.20;;;;;;5033606;28;20847;-44
2022/05/21 05:39:43;;;;;;;4.50;1.70;;;17.30;92.90;;;;;;5033011;28;20531;-44
2022/05/21 05:42:10;;;;;;;3.47;2.00;;;17.40;92.90;;;;;;5033187;28;20456;-45
2022/05/21 05:44:36;;;;;;;3.07;2.17;;;17.50;92.80;;;;;;5032950;28;20491;-45
2022/05/21 05:47:03;;;;;;;3.43;2.10;;;17.70;92.70;;;;;;5033414;28;20729;-44
2022/05/21 05:49:30;;;;;;;2.90;2.17;;;17.50;92.30;;;;;;5033272;28;20439;-45
2022/05/21 05:51:58;;;;;;;3.47;2.00;;;17.60;92.50;;;;;;5032796;28;20443;-44
2022/05/21 05:54:26;;;;;;;4.13;2.30;;;17.70;92.40;;;;;;5032877;28;20466;-45
2022/05/21 05:56:53;;;;;;;7.10;2.60;;;17.10;92.10;;;;;;5033321;28;20456;-45
2022/05/21 06:04:48;;;;;;;4.93;1.93;;;17.60;92.20;;;;;;5032481;28;20496;-44
2022/05/21 06:07:16;;;;;;;5.50;1.97;;;17.60;92.10;;;;;;5032567;28;20439;-44
2022/05/21 06:09:44;;;;;;;5.53;2.10;;;17.90;91.90;;;;;;5032581;28;20439;-45
2022/05/21 06:12:11;;;;;;;5.30;2.13;;;18.30;91.50;;;;;;5032589;28;20436;-44
2022/05/21 06:14:38;;;;;;;4.47;2.30;;;18.00;91.40;;;;;;5032685;28;20648;-44
2022/05/21 06:17:05;;;;;;;4.30;2.03;;;17.70;91.30;;;;;;5032735;28;20798;-44
2022/05/21 06:19:32;;;;;;;3.87;2.17;;;18.00;91.50;;;;;;5032096;28;20517;-45
2022/05/21 06:21:59;;;;;;;4.97;2.30;;;18.70;91.50;;;;;;5032347;28;20432;-45
2022/05/21 06:24:25;;;;;;;2.57;1.70;;;18.20;90.80;;;;;;5031928;28;20496;-45
2022/05/21 06:26:53;;;;;;;5.30;2.20;;;18.30;90.70;;;;;;5032527;28;20741;-44
2022/05/21 06:29:20;;;;;;;3.97;2.13;;;18.40;90.40;;;;;;5031939;28;20449;-45
2022/05/21 06:31:47;;;;;;;8.77;3.70;;;18.60;90.20;;;;;;5032231;28;20441;-43
2022/05/21 06:34:13;;;;;;;5.87;2.30;;;17.90;89.10;;;;;;5032497;28;20452;-43
2022/05/21 06:36:40;;;;;;;2.87;2.07;;;18.70;89.70;;;;;;5033312;28;20437;-44
2022/05/21 06:39:07;;;;;;;5.73;2.40;;;18.40;89.20;;;;;;5031486;28;20480;-44
2022/05/21 06:41:34;;;;;;;5.10;2.27;;;18.50;89.10;;;;;;5032655;28;20444;-44
2022/05/21 06:44:02;;;;;;;3.90;2.47;;;18.00;88.20;;;;;;5032965;28;20481;-44
2022/05/21 06:46:28;;;;;;;5.23;2.70;;;17.90;88.40;;;;;;5036105;28;20432;-44
2022/05/21 06:48:55;;;;;;;4.30;1.90;;;18.10;88.50;;;;;;5036108;28;20459;-46
2022/05/21 06:51:22;;;;;;;6.13;1.90;;;18.30;88.60;;;;;;5036107;28;20436;-44
2022/05/21 06:53:49;;;;;;;5.53;1.80;;;17.70;87.80;;;;;;5036125;28;20448;-44
2022/05/21 06:56:18;;;;;;;3.30;1.70;;;18.50;88.70;;;;;;5036029;28;20445;-45
2022/05/21 06:58:45;;;;;;;4.77;2.13;;;17.90;87.70;;;;;;5035669;28;20504;-45
2022/05/21 07:01:13;;;;;;;4.33;2.23;;;18.40;88.60;;;;;;5036209;28;20432;-45
2022/05/21 07:03:40;;;;;;;3.93;2.07;;;18.20;88.70;;;;;;5035777;28;21058;-45
2022/05/21 07:08:52;;;;;;;3.30;2.00;;;18.40;88.20;;;;;;5035925;28;20444;-45
2022/05/21 07:11:18;;;;;;;6.80;2.13;;;18.60;88.10;;;;;;5035840;28;20452;-45
2022/05/21 07:13:45;;;;;;;4.70;1.27;;;18.60;88.20;;;;;;5035514;28;20548;-45
2022/05/21 07:16:13;;;;;;;7.83;2.10;;;18.50;87.90;;;;;;5035824;28;20444;-44
2022/05/21 07:18:40;;;;;;;2.77;1.73;;;18.60;87.10;;;;;;5035305;28;20472;-45
2022/05/21 07:21:10;;;;;;;2.00;1.30;;;18.60;86.30;;;;;;5035611;28;20438;-44
2022/05/21 07:23:37;;;;;;;4.13;1.60;;;19.40;86.70;;;;;;5035607;28;20567;-44
2022/05/21 07:26:04;;;;;;;2.63;1.60;;;19.00;85.70;;;;;;5035770;28;20441;-44
2022/05/21 07:28:30;;;;;;;3.40;1.80;;;18.80;85.20;;;;;;5034938;28;20439;-44
2022/05/21 07:30:57;;;;;;;5.60;1.53;;;18.70;84.60;;;;;;5035254;28;20942;-44
2022/05/21 07:33:26;;;;;;;2.80;1.87;;;19.00;84.50;;;;;;5035279;28;21027;-44
2022/05/21 07:35:53;;;;;;;5.97;1.70;;;19.10;84.70;;;;;;5034964;28;20436;-44
2022/05/21 07:38:19;;;;;;;3.33;1.80;;;19.10;84.90;;;;;;5035039;28;20533;-45
2022/05/21 07:40:47;;;;;;;3.63;2.03;;;19.20;84.80;;;;;;5034729;28;20438;-45
2022/05/21 07:43:16;;;;;;;3.67;2.00;;;19.00;84.90;;;;;;5035143;28;20495;-45
2022/05/21 07:45:44;;;;;;;3.47;2.00;;;18.80;85.10;;;;;;5034680;28;20488;-45
2022/05/21 07:48:13;;;;;;;3.77;1.70;;;18.70;85.30;;;;;;5033533;28;20455;-44
2022/05/21 07:50:44;;;;;;;4.50;1.73;;;18.80;85.80;;;;;;5034965;28;20493;-44
2022/05/21 07:53:12;;;;;;;2.90;1.70;;;18.60;85.80;;;;;;5034998;28;20438;-43
2022/05/21 07:55:39;;;;;;;3.00;1.73;;;18.80;86.40;;;;;;5033905;28;20927;-44
2022/05/21 07:58:06;;;;;;;1.70;1.53;;;18.90;87.00;;;;;;5034724;28;20932;-45
2022/05/21 08:00:33;;;;;;;2.83;2.03;;;18.60;87.00;;;;;;5034417;28;20748;-44
2022/05/21 08:03:00;;;;;;;6.90;2.40;;;19.00;87.60;;;;;;5034550;28;20437;-45
2022/05/21 08:05:26;;;;;;;2.63;1.83;;;19.10;87.70;;;;;;5033716;28;20561;-44
2022/05/21 08:07:54;;;;;;;3.87;2.07;;;19.00;87.70;;;;;;5034689;28;20445;-45
2022/05/21 08:10:22;;;;;;;3.63;1.87;;;19.20;87.60;;;;;;5034310;28;20446;-44
2022/05/21 08:12:50;;;;;;;3.00;1.97;;;19.10;87.50;;;;;;5034679;28;20431;-45
2022/05/21 08:15:17;;;;;;;4.70;2.00;;;19.00;87.30;;;;;;5034393;28;21022;-45
2022/05/21 08:17:44;;;;;;;2.93;1.93;;;18.80;87.30;;;;;;5034226;28;20439;-45
2022/05/21 08:20:12;;;;;;;3.57;2.17;;;19.00;87.80;;;;;;5033804;28;20549;-45
2022/05/21 08:28:13;;;;;;;5.97;2.13;;;19.40;88.30;;;;;;5034131;28;20450;-43
2022/05/21 08:30:40;;;;;;;2.70;2.20;;;19.30;87.40;;;;;;5033848;28;20446;-44
2022/05/21 08:33:08;;;;;;;5.43;2.63;;;19.90;87.30;;;;;;5034251;28;20534;-45
2022/05/21 08:35:38;;;;;;;4.10;2.00;;;20.00;85.80;;;;;;5034212;28;20837;-44
2022/05/21 08:38:05;;;;;;;3.10;1.63;;;20.40;86.00;;;;;;5034056;28;20424;-45
2022/05/21 08:40:42;;;;;;;5.23;2.00;;;20.40;85.30;;;;;;5034144;28;20444;-44
2022/05/21 08:43:18;;;;;;;3.13;1.90;;;20.60;83.80;;;;;;5034725;28;20453;-44
2022/05/21 08:45:58;;;;;;;3.60;1.60;;;20.30;83.40;;;;;;5034667;28;20509;-44
2022/05/21 08:48:28;;;;;;;3.63;1.70;;;20.80;84.20;;;;;;5033680;28;20419;-45
2022/05/21 08:50:55;;;;;;;4.57;2.23;;;20.60;84.00;;;;;;5034087;28;20436;-45
2022/05/21 08:53:25;;;;;;;7.30;2.53;;;20.50;83.60;;;;;;5033647;28;20494;-45
2022/05/21 08:55:55;;;;;;;5.90;2.63;;;20.10;83.30;;;;;;5034195;28;20807;-45
2022/05/21 08:58:31;;;;;;;4.93;2.20;;;20.10;84.50;;;;;;5033574;28;20436;-45
2022/05/21 09:00:58;;;;;;;3.97;2.43;;;19.90;85.60;;;;;;5034317;28;20781;-45
2022/05/21 09:03:26;;;;;;;4.83;2.20;;;19.70;88.00;;;;;;5033734;28;20468;-45
2022/05/21 09:06:06;;;;;;;5.73;2.80;;;19.60;91.00;;;;;;5033361;28;20479;-43
2022/05/21 09:08:43;;;;;;;6.80;3.27;;;19.30;92.80;;;;;;5031734;28;20526;-45
2022/05/21 09:11:15;;;;;;;7.30;2.97;;;19.40;94.20;;;;;;5033616;28;20446;-44
2022/05/21 09:13:46;;;;;;;5.90;3.80;;;19.10;94.90;;;;;;5033918;28;21058;-45
2022/05/21 09:19:00;;;;;;;3.57;3.10;;;19.30;95.60;;;;;;5033139;28;20435;-45
2022/05/21 09:21:28;;;;;;;7.90;3.70;;;19.30;96.20;;;;;;5032976;28;20704;-45
2022/05/21 09:23:57;;;;;;;6.23;2.70;;;19.50;96.20;;;;;;5032757;28;20455;-46
2022/05/21 09:26:28;;;;;;;7.60;3.43;;;19.60;95.90;;;;;;5032975;28;20485;-44
2022/05/21 09:29:17;;;;;;;9.60;3.70;;;19.30;95.40;;;;;;5032738;28;20836;-45
2022/05/21 09:31:44;;;;;;;4.43;3.17;;;19.50;95.20;;;;;;5032960;28;20764;-45
2022/05/21 09:34:14;;;;;;;7.67;3.70;;;19.70;95.50;;;;;;5032815;28;20459;-45
2022/05/21 09:36:41;;;;;;;9.53;3.43;;;19.80;94.70;;;;;;5033131;28;20435;-45
2022/05/21 09:39:08;;;;;;;4.60;2.80;;;20.00;94.60;;;;;;5032803;28;20878;-45
2022/05/21 09:41:37;;;;;;;6.20;3.63;;;19.90;94.30;;;;;;5033104;28;20507;-45
2022/05/21 09:47:10;;;;;;;11.63;3.83;;;19.60;93.80;;;;;;5032694;28;21023;-43
2022/05/21 09:49:39;;;;;;;4.97;3.80;;;19.70;93.80;;;;;;5032426;28;20935;-44
2022/05/21 09:52:07;;;;;;;5.13;3.20;;;19.00;93.50;;;;;;5032626;28;20479;-45
2022/05/21 09:54:36;;;;;;;9.50;5.40;;;19.60;93.80;;;;;;5032514;28;20493;-45
2022/05/21 09:57:05;;;;;;;4.63;4.23;;;19.30;93.90;;;;;;5032637;28;20447;-45
2022/05/21 09:59:34;;;;;;;5.73;4.20;;;19.60;93.60;;;;;;5032201;28;20435;-44
2022/05/21 10:02:03;;;;;;;5.50;4.30;;;19.80;94.00;;;;;;5032429;28;20478;-45
2022/05/21 10:04:41;;;;;;;9.37;4.40;;;19.60;94.10;;;;;;5032960;28;20482;-45
2022/05/21 10:10:58;;;;;;;7.83;6.20;;;19.50;94.60;;;;;;5032708;28;20485;-45
2022/05/21 10:13:00;;;;;;;6.83;5.60;;;19.40;94.80;;;;;;5031297;28;20446;-44
2022/05/21 10:15:34;;;;;;;7.80;4.97;;;19.50;95.10;;;;;;5031854;28;20451;-43
2022/05/21 10:18:05;;;;;;;18.80;7.00;;;19.70;95.70;;;;;;5032333;28;20420;-45
2022/05/21 10:20:36;;;;;;;7.07;6.07;;;19.70;95.40;;;;;;5032842;28;20454;-43
2022/05/21 10:23:09;;;;;;;8.93;6.30;;;19.40;94.20;;;;;;5033244;28;20781;-44
2022/05/21 10:25:49;;;;;;;9.50;6.53;;;19.90;94.10;;;;;;5032587;28;20530;-45
2022/05/21 10:28:38;;;;;;;7.83;7.17;;;19.70;93.30;;;;;;5032682;28;20428;-44
2022/05/21 10:31:16;;;;;;;8.57;6.43;;;20.00;92.80;;;;;;5032646;28;20452;-49
2022/05/21 10:33:52;;;;;;;7.57;6.80;;;20.30;92.80;;;;;;5032835;28;20981;-44
2022/05/21 10:36:35;;;;;;;9.43;7.20;;;20.00;92.10;;;;;;5032317;28;20442;-43
2022/05/21 10:39:16;;;;;;;8.77;6.47;;;20.00;91.90;;;;;;5032266;28;20443;-45
2022/05/21 10:42:03;;;;;;;9.10;6.53;;;20.50;91.80;;;;;;5033376;28;20440;-46
2022/05/21 10:44:42;;;;;;;8.33;6.07;;;20.30;91.40;;;;;;5032928;28;20461;-44
2022/05/21 10:47:24;;;;;;;6.77;6.07;;;20.10;91.00;;;;;;5033784;28;20434;-44
2022/05/21 10:50:17;;;;;;;8.20;6.00;;;20.60;90.90;;;;;;5034405;28;20470;-43
2022/05/21 10:52:57;;;;;;;6.63;5.80;;;20.80;89.30;;;;;;5031269;28;20448;-45
2022/05/21 10:55:28;;;;;;;6.07;5.47;;;20.70;88.50;;;;;;5032814;28;20929;-44
2022/05/21 10:58:13;;;;;;;11.40;5.70;;;20.60;87.80;;;;;;5032410;28;20439;-44
2022/05/21 11:00:48;;;;;;;6.47;4.70;;;20.20;87.10;;;;;;5032249;28;20452;-44
2022/05/21 11:03:32;;;;;;;7.83;5.87;;;20.50;88.00;;;;;;5031896;28;20438;-43
2022/05/21 11:06:37;;;;;;;6.77;4.90;;;20.40;86.80;;;;;;5032217;28;20479;-44
2022/05/21 11:09:15;;;;;;;7.63;5.30;;;20.50;88.00;;;;;;4990121;28;20455;-41
2022/05/21 11:11:54;;;;;;;7.37;6.00;;;20.20;87.90;;;;;;5027564;28;20563;-43
2022/05/21 11:14:28;;;;;;;6.00;4.97;;;19.80;87.30;;;;;;5031831;28;20904;-43
2022/05/21 11:17:11;;;;;;;10.60;4.77;;;19.70;87.30;;;;;;5031420;28;20443;-42
2022/05/21 11:19:46;;;;;;;5.53;4.77;;;20.20;88.10;;;;;;5031683;28;20940;-45
2022/05/21 11:22:17;;;;;;;8.30;4.40;;;20.00;86.30;;;;;;5031581;28;20438;-45
2022/05/21 11:24:51;;;;;;;6.70;4.43;;;20.50;85.90;;;;;;5032052;28;20959;-44
2022/05/21 11:27:24;;;;;;;4.57;4.07;;;20.10;84.50;;;;;;5032192;28;20510;-45
2022/05/21 11:29:56;;;;;;;6.60;4.50;;;20.50;84.40;;;;;;5032825;28;20445;-43
2022/05/21 11:38:11;;;;;;;6.90;4.30;;;20.60;83.20;;;;;;5035780;28;20519;-43
2022/05/21 11:41:24;;;;;;;7.80;4.07;;;20.70;83.50;;;;;;5035865;28;20436;-44
2022/05/21 11:44:55;;;;;;;5.93;3.90;;;21.10;83.90;;;;;;5036506;28;20552;-44
2022/05/21 11:46:49;;;;;;;5.00;4.23;;;21.10;83.20;;;;;;5037949;28;20577;-44
2022/05/21 11:49:35;;;;;;;9.50;4.93;;;21.20;83.50;;;;;;5038633;28;20456;-46
2022/05/21 11:52:51;;;;;;;7.60;5.33;;;21.40;83.00;;;;;;5038369;28;20468;-43
2022/05/21 11:55:22;;;;;;;9.90;5.23;;;21.40;82.20;;;;;;5035652;28;20456;-43
2022/05/21 11:57:52;;;;;;;6.13;4.80;;;21.10;82.70;;;;;;5035649;28;20801;-44
2022/05/21 12:00:45;;;;;;;8.20;5.00;;;20.60;82.40;;;;;;5034582;28;20539;-44
2022/05/21 12:03:14;;;;;;;8.73;5.00;;;20.60;82.40;;;;;;5035237;28;20563;-43
2022/05/21 12:05:56;;;;;;;6.30;4.40;;;20.50;83.10;;;;;;5035218;28;20479;-44
2022/05/21 12:08:39;;;;;;;9.13;4.73;;;20.20;83.00;;;;;;5035124;28;20981;-47
2022/05/21 12:11:10;;;;;;;11.00;5.03;;;20.20;82.90;;;;;;5035634;28;20437;-42
2022/05/21 12:13:58;;;;;;;13.73;5.60;;;20.10;83.70;;;;;;5035991;28;20451;-43
2022/05/21 12:16:43;;;;;;;5.40;4.60;;;20.00;85.40;;;;;;5034806;28;20523;-44
2022/05/21 12:19:10;;;;;;;7.70;4.80;;;20.30;86.10;;;;;;5034791;28;20438;-42
2022/05/21 12:22:00;;;;;;;5.83;4.33;;;20.10;86.00;;;;;;5035011;28;20438;-44
2022/05/21 12:24:37;;;;;;;16.30;4.87;;;20.20;84.80;;;;;;5034177;28;20451;-45
2022/05/21 12:27:06;;;;;;;5.33;3.30;;;20.10;84.00;;;;;;5034930;28;20478;-44
2022/05/21 12:29:43;;;;;;;8.50;4.00;;;20.20;83.20;;;;;;5034503;28;20490;-44
2022/05/21 12:32:16;;;;;;;5.87;3.60;;;20.10;82.80;;;;;;5034318;28;20427;-44
2022/05/21 12:35:06;;;;;;;5.80;3.77;;;20.20;82.00;;;;;;5034451;28;20891;-44
2022/05/21 12:37:36;;;;;;;5.27;3.77;;;20.00;81.50;;;;;;5034654;28;20443;-44
2022/05/21 12:40:16;;;;;;;9.30;3.60;;;20.40;82.10;;;;;;5034769;28;20436;-45
2022/05/21 12:42:47;;;;;;;8.90;3.90;;;20.30;82.00;;;;;;5033130;28;20455;-44
2022/05/21 12:45:30;;;;;;;6.50;3.90;;;19.90;81.70;;;;;;5034452;28;20471;-45
2022/05/21 12:48:07;;;;;;;6.40;3.93;;;20.40;82.40;;;;;;5033953;28;20436;-44
2022/05/21 12:50:34;;;;;;;7.87;4.37;;;20.50;82.70;;;;;;5033990;28;20518;-44
2022/05/21 12:53:02;;;;;;;5.60;4.43;;;20.70;83.00;;;;;;5034559;28;20530;-44
2022/05/21 12:55:32;;;;;;;10.63;4.63;;;21.00;83.20;;;;;;5034326;28;20511;-45
2022/05/21 12:58:15;;;;;;;6.90;4.20;;;20.70;82.50;;;;;;5034021;28;20627;-44
2022/05/21 13:00:49;;;;;;;7.00;3.83;;;21.10;82.50;;;;;;5033768;28;20798;-44
2022/05/21 13:03:16;;;;;;;10.40;3.63;;;21.20;81.60;;;;;;5033976;28;20428;-46
2022/05/21 13:05:51;;;;;;;5.50;3.23;;;21.40;80.20;;;;;;5033835;28;20508;-45
2022/05/21 13:08:19;;;;;;;6.20;3.10;;;20.90;79.30;;;;;;5034233;28;20432;-46
2022/05/21 13:10:59;;;;;;;5.67;3.27;;;21.40;79.20;;;;;;5034729;28;20505;-44
2022/05/21 13:13:29;;;;;;;4.33;3.07;;;21.00;77.80;;;;;;5034225;28;20476;-43
2022/05/21 13:15:58;;;;;;;5.90;2.70;;;21.60;78.50;;;;;;5034675;28;20479;-44
2022/05/21 13:18:39;;;;;;;15.70;2.97;;;21.30;77.20;;;;;;5033211;28;20438;-45
2022/05/21 13:21:17;;;;;;;4.93;2.80;;;21.70;76.80;;;;;;5033924;28;20490;-44
2022/05/21 13:24:06;;;;;;;6.93;2.80;;;21.30;76.50;;;;;;5033427;28;20459;-44
2022/05/21 13:26:35;;;;;;;8.70;2.63;;;21.40;76.50;;;;;;5034307;28;20481;-45
2022/05/21 13:29:15;;;;;;;5.80;3.07;;;21.60;76.70;;;;;;5034209;28;20946;-44
2022/05/21 13:31:42;;;;;;;7.77;3.10;;;21.40;76.60;;;;;;5034745;28;20786;-44
2022/05/21 13:34:13;;;;;;;9.10;3.27;;;21.40;77.30;;;;;;5035016;28;20464;-43
2022/05/21 13:36:40;;;;;;;8.17;2.73;;;21.40;77.60;;;;;;5034377;28;20446;-43
2022/05/21 13:39:14;;;;;;;6.30;2.40;;;21.30;77.40;;;;;;5034614;28;20532;-41
2022/05/21 13:41:44;;;;;;;5.90;2.07;;;21.40;77.30;;;;;;5033993;28;20437;-45